createdAt,value
2022-08-26T00:00:41.743Z,21.02
2022-08-26T00:01:42.133Z,20.99
2022-08-26T00:02:41.754Z,20.99
2022-08-26T00:03:41.737Z,20.99
2022-08-26T00:04:41.692Z,20.98
2022-08-26T00:05:41.694Z,20.96
2022-08-26T00:06:42.714Z,20.96
2022-08-26T00:07:41.681Z,20.98
2022-08-26T00:08:42.051Z,20.96
2022-08-26T00:09:41.635Z,20.95
2022-08-26T00:10:41.652Z,20.95
2022-08-26T00:11:41.613Z,20.91
2022-08-26T00:12:41.632Z,20.91
2022-08-26T00:13:41.593Z,20.90
2022-08-26T00:14:41.637Z,20.89
2022-08-26T00:15:42.015Z,20.89
2022-08-26T00:16:47.929Z,20.90
2022-08-26T00:17:41.554Z,20.87
2022-08-26T00:18:41.557Z,20.86
2022-08-26T00:19:41.526Z,20.80
2022-08-26T00:20:41.940Z,20.81
2022-08-26T00:21:41.526Z,20.81
2022-08-26T00:22:41.873Z,20.77
2022-08-26T00:23:41.490Z,20.77
2022-08-26T00:24:41.493Z,20.74
2022-08-26T00:25:42.570Z,20.71
2022-08-26T00:26:41.655Z,20.66
2022-08-26T00:27:41.440Z,20.64
2022-08-26T00:28:41.445Z,20.61
2022-08-26T00:29:41.951Z,20.59
2022-08-26T00:30:41.421Z,20.53
2022-08-26T00:31:41.433Z,20.51
2022-08-26T00:32:41.420Z,20.53
2022-08-26T00:33:41.373Z,20.50
2022-08-26T00:34:41.367Z,20.47
2022-08-26T00:35:45.234Z,20.47
2022-08-26T00:36:41.801Z,20.47
2022-08-26T00:37:41.340Z,20.46
2022-08-26T00:38:41.349Z,20.47
2022-08-26T00:39:41.309Z,20.46
2022-08-26T00:40:41.301Z,20.47
2022-08-26T00:41:41.285Z,20.47
2022-08-26T00:42:41.288Z,20.46
2022-08-26T00:43:47.339Z,20.47
2022-08-26T00:44:41.294Z,20.47
2022-08-26T00:45:41.278Z,20.49
2022-08-26T00:46:46.534Z,20.43
2022-08-26T00:47:41.231Z,20.43
2022-08-26T00:48:41.221Z,20.42
2022-08-26T00:49:41.651Z,20.41
2022-08-26T00:50:41.231Z,20.38
2022-08-26T00:51:41.183Z,20.35
2022-08-26T00:52:41.182Z,20.35
2022-08-26T00:53:41.481Z,20.34
2022-08-26T00:54:42.422Z,20.33
2022-08-26T00:55:41.137Z,20.31
2022-08-26T00:56:41.557Z,20.28
2022-08-26T00:57:41.134Z,20.28
2022-08-26T00:58:41.117Z,20.28
2022-08-26T00:59:41.094Z,20.28
2022-08-26T01:00:41.170Z,20.24
2022-08-26T01:01:41.081Z,20.21
2022-08-26T01:02:41.146Z,20.21
2022-08-26T01:03:41.055Z,20.18
2022-08-26T01:04:41.064Z,20.20
2022-08-26T01:05:41.037Z,20.18
2022-08-26T01:06:41.023Z,20.16
2022-08-26T01:07:41.024Z,20.13
2022-08-26T01:08:41.051Z,20.13
2022-08-26T01:09:41.374Z,20.10
2022-08-26T01:10:40.981Z,20.10
2022-08-26T01:11:40.955Z,20.08
2022-08-26T01:12:40.955Z,20.08
2022-08-26T01:13:40.941Z,20.05
2022-08-26T01:14:41.009Z,20.05
2022-08-26T01:15:40.943Z,20.03
2022-08-26T01:16:42.243Z,20.02
2022-08-26T01:17:40.897Z,20.00
2022-08-26T01:18:40.895Z,20.00
2022-08-26T01:19:40.882Z,19.97
2022-08-26T01:20:40.931Z,19.97
2022-08-26T01:21:41.284Z,19.98
2022-08-26T01:22:40.855Z,19.97
2022-08-26T01:23:42.292Z,19.98
2022-08-26T01:24:40.825Z,19.98
2022-08-26T01:25:40.807Z,19.97
2022-08-26T01:26:40.843Z,19.95
2022-08-26T01:27:40.798Z,19.93
2022-08-26T01:28:40.794Z,19.90
2022-08-26T01:29:40.776Z,19.87
2022-08-26T01:30:41.094Z,19.88
2022-08-26T01:31:40.842Z,19.84
2022-08-26T01:32:40.772Z,19.78
2022-08-26T01:33:42.583Z,19.75
2022-08-26T01:34:40.722Z,19.73
2022-08-26T01:35:40.712Z,19.73
2022-08-26T01:36:40.728Z,19.72
2022-08-26T01:37:41.145Z,19.68
2022-08-26T01:38:40.701Z,19.65
2022-08-26T01:39:40.659Z,19.61
2022-08-26T01:40:40.662Z,19.58
2022-08-26T01:41:40.645Z,19.57
2022-08-26T01:42:40.636Z,19.57
2022-08-26T01:43:40.635Z,19.58
2022-08-26T01:44:41.055Z,19.54
2022-08-26T01:45:40.733Z,19.54
2022-08-26T01:46:40.586Z,19.53
2022-08-26T01:47:40.587Z,19.57
2022-08-26T01:48:40.563Z,19.55
2022-08-26T01:49:40.553Z,19.55
2022-08-26T01:50:40.579Z,19.60
2022-08-26T01:51:40.831Z,19.58
2022-08-26T01:52:40.529Z,19.60
2022-08-26T01:53:41.808Z,19.61
2022-08-26T01:54:40.517Z,19.65
2022-08-26T01:55:40.478Z,19.65
2022-08-26T01:56:40.510Z,19.65
2022-08-26T01:57:40.485Z,19.66
2022-08-26T01:58:40.471Z,19.66
2022-08-26T01:59:40.469Z,19.65
2022-08-26T02:00:40.482Z,19.65
2022-08-26T02:01:40.420Z,19.61
2022-08-26T02:02:40.450Z,19.61
2022-08-26T02:03:40.446Z,19.60
2022-08-26T02:04:41.811Z,19.60
2022-08-26T02:05:40.381Z,19.58
2022-08-26T02:06:40.374Z,19.58
2022-08-26T02:07:40.375Z,19.55
2022-08-26T02:08:40.381Z,19.55
2022-08-26T02:09:41.323Z,19.54
2022-08-26T02:10:40.324Z,19.54
2022-08-26T02:11:40.322Z,19.51
2022-08-26T02:12:40.304Z,19.50
2022-08-26T02:13:40.308Z,19.50
2022-08-26T02:14:44.037Z,19.48
2022-08-26T02:15:40.273Z,19.50
2022-08-26T02:16:42.336Z,19.47
2022-08-26T02:17:40.256Z,19.48
2022-08-26T02:18:40.241Z,19.46
2022-08-26T02:19:40.235Z,19.43
2022-08-26T02:20:40.255Z,19.43
2022-08-26T02:21:40.206Z,19.46
2022-08-26T02:22:40.187Z,19.48
2022-08-26T02:23:40.188Z,19.53
2022-08-26T02:24:40.181Z,19.57
2022-08-26T02:25:40.186Z,19.60
2022-08-26T02:26:40.202Z,19.60
2022-08-26T02:27:40.177Z,19.58
2022-08-26T02:28:40.464Z,19.58
2022-08-26T02:29:40.135Z,19.58
2022-08-26T02:30:40.112Z,19.55
2022-08-26T02:31:40.133Z,19.55
2022-08-26T02:32:40.331Z,19.54
2022-08-26T02:33:43.037Z,19.53
2022-08-26T02:34:40.064Z,19.53
2022-08-26T02:35:40.507Z,19.47
2022-08-26T02:36:40.045Z,19.43
2022-08-26T02:37:41.846Z,19.39
2022-08-26T02:38:40.080Z,19.36
2022-08-26T02:39:40.026Z,19.36
2022-08-26T02:40:40.041Z,19.36
2022-08-26T02:41:45.041Z,19.32
2022-08-26T02:42:39.982Z,19.31
2022-08-26T02:43:39.983Z,19.28
2022-08-26T02:44:39.978Z,19.25
2022-08-26T02:45:39.978Z,19.28
2022-08-26T02:46:39.991Z,19.25
2022-08-26T02:47:39.954Z,19.25
2022-08-26T02:48:40.398Z,19.23
2022-08-26T02:49:39.915Z,19.21
2022-08-26T02:50:39.924Z,19.18
2022-08-26T02:51:39.901Z,19.20
2022-08-26T02:52:39.895Z,19.17
2022-08-26T02:53:39.870Z,19.15
2022-08-26T02:54:39.883Z,19.14
2022-08-26T02:55:41.278Z,19.10
2022-08-26T02:56:39.875Z,19.01
2022-08-26T02:57:39.825Z,18.98
2022-08-26T02:58:39.801Z,18.95
2022-08-26T02:59:39.811Z,18.92
2022-08-26T03:00:39.858Z,18.92
2022-08-26T03:01:39.815Z,18.90
2022-08-26T03:02:40.133Z,18.86
2022-08-26T03:03:39.756Z,18.86
2022-08-26T03:04:39.745Z,18.83
2022-08-26T03:05:39.739Z,18.84
2022-08-26T03:06:40.806Z,18.83
2022-08-26T03:07:39.717Z,18.79
2022-08-26T03:08:39.757Z,18.79
2022-08-26T03:09:40.123Z,18.76
2022-08-26T03:10:39.681Z,18.74
2022-08-26T03:11:39.689Z,18.77
2022-08-26T03:12:39.659Z,18.74
2022-08-26T03:13:39.655Z,18.77
2022-08-26T03:14:39.683Z,18.80
2022-08-26T03:15:39.626Z,18.79
2022-08-26T03:16:39.985Z,18.80
2022-08-26T03:17:39.613Z,18.79
2022-08-26T03:18:39.588Z,18.77
2022-08-26T03:19:39.582Z,18.73
2022-08-26T03:20:39.604Z,18.72
2022-08-26T03:21:39.582Z,18.68
2022-08-26T03:22:39.543Z,18.64
2022-08-26T03:23:40.020Z,18.62
2022-08-26T03:24:39.533Z,18.61
2022-08-26T03:25:39.539Z,18.55
2022-08-26T03:26:39.560Z,18.52
2022-08-26T03:27:39.513Z,18.50
2022-08-26T03:28:39.483Z,18.47
2022-08-26T03:29:39.487Z,18.44
2022-08-26T03:30:39.864Z,18.43
2022-08-26T03:31:39.528Z,18.42
2022-08-26T03:32:39.515Z,18.40
2022-08-26T03:33:39.440Z,18.40
2022-08-26T03:34:39.431Z,18.42
2022-08-26T03:35:39.412Z,18.43
2022-08-26T03:36:39.428Z,18.42
2022-08-26T03:37:39.727Z,18.39
2022-08-26T03:38:39.445Z,18.40
2022-08-26T03:39:39.390Z,18.39
2022-08-26T03:40:39.904Z,18.37
2022-08-26T03:41:39.357Z,18.39
2022-08-26T03:42:39.347Z,18.34
2022-08-26T03:43:39.336Z,18.39
2022-08-26T03:44:42.184Z,18.39
2022-08-26T03:45:39.304Z,18.39
2022-08-26T03:46:39.410Z,18.40
2022-08-26T03:47:39.324Z,18.40
2022-08-26T03:48:39.278Z,18.40
2022-08-26T03:49:39.324Z,18.40
2022-08-26T03:50:39.305Z,18.37
2022-08-26T03:51:39.604Z,18.39
2022-08-26T03:52:43.535Z,18.34
2022-08-26T03:53:39.223Z,18.33
2022-08-26T03:54:39.215Z,18.29
2022-08-26T03:55:39.210Z,18.34
2022-08-26T03:56:39.216Z,18.33
2022-08-26T03:57:39.207Z,18.33
2022-08-26T03:58:39.635Z,18.31
2022-08-26T03:59:39.173Z,18.33
2022-08-26T04:00:39.157Z,18.33
2022-08-26T04:01:39.192Z,18.33
2022-08-26T04:02:39.204Z,18.29
2022-08-26T04:03:39.112Z,18.29
2022-08-26T04:04:39.102Z,18.31
2022-08-26T04:05:39.493Z,18.33
2022-08-26T04:06:39.067Z,18.36
2022-08-26T04:07:39.092Z,18.34
2022-08-26T04:08:39.107Z,18.34
2022-08-26T04:09:39.064Z,18.34
2022-08-26T04:10:39.054Z,18.36
2022-08-26T04:11:39.038Z,18.33
2022-08-26T04:12:39.326Z,18.34
2022-08-26T04:13:39.011Z,18.31
2022-08-26T04:14:39.078Z,18.34
2022-08-26T04:15:38.981Z,18.34
2022-08-26T04:16:38.960Z,18.37
2022-08-26T04:17:38.970Z,18.40
2022-08-26T04:18:46.585Z,18.40
2022-08-26T04:19:38.957Z,18.43
2022-08-26T04:20:38.964Z,18.42
2022-08-26T04:21:38.914Z,18.43
2022-08-26T04:22:38.898Z,18.46
2022-08-26T04:23:47.144Z,18.47
2022-08-26T04:24:38.888Z,18.46
2022-08-26T04:25:38.878Z,18.47
2022-08-26T04:26:39.351Z,18.49
2022-08-26T04:27:38.854Z,18.49
2022-08-26T04:28:38.874Z,18.50
2022-08-26T04:29:38.835Z,18.49
2022-08-26T04:30:39.254Z,18.47
2022-08-26T04:31:38.841Z,18.47
2022-08-26T04:32:38.832Z,18.47
2022-08-26T04:33:41.878Z,18.47
2022-08-26T04:34:38.779Z,18.47
2022-08-26T04:35:38.763Z,18.47
2022-08-26T04:36:38.742Z,18.47
2022-08-26T04:37:38.790Z,18.47
2022-08-26T04:38:38.769Z,18.44
2022-08-26T04:39:38.720Z,18.47
2022-08-26T04:40:38.738Z,18.46
2022-08-26T04:41:38.710Z,18.43
2022-08-26T04:42:39.132Z,18.46
2022-08-26T04:43:38.695Z,18.44
2022-08-26T04:44:38.742Z,18.46
2022-08-26T04:45:38.664Z,18.44
2022-08-26T04:46:39.874Z,18.46
2022-08-26T04:47:38.633Z,18.46
2022-08-26T04:48:38.617Z,18.46
2022-08-26T04:49:38.955Z,18.46
2022-08-26T04:50:38.638Z,18.46
2022-08-26T04:51:38.597Z,18.44
2022-08-26T04:52:38.597Z,18.46
2022-08-26T04:53:38.576Z,18.46
2022-08-26T04:54:38.552Z,18.44
2022-08-26T04:55:42.679Z,18.44
2022-08-26T04:56:38.561Z,18.43
2022-08-26T04:57:38.528Z,18.43
2022-08-26T04:58:38.511Z,18.44
2022-08-26T04:59:39.413Z,18.46
2022-08-26T05:00:38.485Z,18.49
2022-08-26T05:01:39.546Z,18.50
2022-08-26T05:02:38.915Z,18.49
2022-08-26T05:03:38.530Z,18.52
2022-08-26T05:04:38.435Z,18.52
2022-08-26T05:05:38.446Z,18.54
2022-08-26T05:06:38.465Z,18.52
2022-08-26T05:07:38.418Z,18.54
2022-08-26T05:08:38.420Z,18.54
2022-08-26T05:09:38.689Z,18.57
2022-08-26T05:10:38.372Z,18.57
2022-08-26T05:11:38.375Z,18.55
2022-08-26T05:12:38.373Z,18.58
2022-08-26T05:13:38.356Z,18.59
2022-08-26T05:14:38.366Z,18.59
2022-08-26T05:15:38.400Z,18.62
2022-08-26T05:16:38.977Z,18.65
2022-08-26T05:17:38.306Z,18.67
2022-08-26T05:18:38.284Z,18.68
2022-08-26T05:19:38.588Z,18.68
2022-08-26T05:20:38.304Z,18.68
2022-08-26T05:21:38.278Z,18.68
2022-08-26T05:22:38.249Z,18.72
2022-08-26T05:23:38.579Z,18.72
2022-08-26T05:24:38.225Z,18.73
2022-08-26T05:25:38.223Z,18.74
2022-08-26T05:26:38.247Z,18.80
2022-08-26T05:27:38.218Z,18.82
2022-08-26T05:28:38.176Z,18.87
2022-08-26T05:29:38.166Z,18.91
2022-08-26T05:30:38.646Z,18.91
2022-08-26T05:31:38.159Z,18.94
2022-08-26T05:32:38.177Z,18.97
2022-08-26T05:33:38.138Z,19.01
2022-08-26T05:34:38.111Z,19.02
2022-08-26T05:35:38.139Z,19.08
2022-08-26T05:36:38.097Z,19.11
2022-08-26T05:37:38.493Z,19.14
2022-08-26T05:38:38.103Z,19.18
2022-08-26T05:39:38.113Z,19.20
2022-08-26T05:40:38.131Z,19.21
2022-08-26T05:41:38.271Z,19.21
2022-08-26T05:42:38.027Z,19.21
2022-08-26T05:43:38.029Z,19.24
2022-08-26T05:44:55.534Z,19.24
2022-08-26T05:45:41.189Z,19.29
2022-08-26T05:46:38.099Z,19.29
2022-08-26T05:47:37.976Z,19.35
2022-08-26T05:48:37.978Z,19.35
2022-08-26T05:49:37.952Z,19.36
2022-08-26T05:50:37.971Z,19.38
2022-08-26T05:51:38.360Z,19.35
2022-08-26T05:52:37.921Z,19.38
2022-08-26T05:53:37.920Z,19.39
2022-08-26T05:54:38.082Z,19.42
2022-08-26T05:55:37.951Z,19.42
2022-08-26T05:56:37.917Z,19.39
2022-08-26T05:57:42.205Z,19.33
2022-08-26T05:58:37.919Z,19.33
2022-08-26T05:59:37.852Z,19.38
2022-08-26T06:00:37.824Z,19.38
2022-08-26T06:01:37.932Z,19.42
2022-08-26T06:02:37.934Z,19.43
2022-08-26T06:03:37.812Z,19.43
2022-08-26T06:04:38.061Z,19.43
2022-08-26T06:05:39.269Z,19.43
2022-08-26T06:06:37.765Z,19.42
2022-08-26T06:07:37.777Z,19.46
2022-08-26T06:08:37.780Z,19.46
2022-08-26T06:09:38.614Z,19.46
2022-08-26T06:10:37.735Z,19.47
2022-08-26T06:11:37.735Z,19.48
2022-08-26T06:12:37.703Z,19.50
2022-08-26T06:13:37.709Z,19.50
2022-08-26T06:14:37.729Z,19.54
2022-08-26T06:15:37.782Z,19.55
2022-08-26T06:16:37.936Z,19.57
2022-08-26T06:17:37.653Z,19.60
2022-08-26T06:18:37.647Z,19.65
2022-08-26T06:19:37.633Z,19.69
2022-08-26T06:20:37.653Z,19.70
2022-08-26T06:21:37.605Z,19.76
2022-08-26T06:22:37.600Z,19.79
2022-08-26T06:23:37.585Z,19.76
2022-08-26T06:24:37.577Z,19.79
2022-08-26T06:25:37.592Z,19.79
2022-08-26T06:26:37.596Z,19.83
2022-08-26T06:27:37.545Z,19.79
2022-08-26T06:28:38.885Z,19.80
2022-08-26T06:29:37.656Z,19.84
2022-08-26T06:30:37.521Z,19.83
2022-08-26T06:31:37.547Z,19.86
2022-08-26T06:32:37.587Z,19.79
2022-08-26T06:33:37.473Z,19.80
2022-08-26T06:34:37.514Z,19.83
2022-08-26T06:35:37.745Z,19.86
2022-08-26T06:36:37.453Z,19.84
2022-08-26T06:37:37.431Z,19.87
2022-08-26T06:38:37.495Z,19.87
2022-08-26T06:39:41.245Z,19.88
2022-08-26T06:40:37.406Z,19.88
2022-08-26T06:41:41.405Z,19.91
2022-08-26T06:42:37.389Z,19.91
2022-08-26T06:43:37.366Z,19.94
2022-08-26T06:44:37.405Z,19.97
2022-08-26T06:45:37.350Z,19.98
2022-08-26T06:46:37.423Z,20.02
2022-08-26T06:47:37.361Z,20.05
2022-08-26T06:48:37.600Z,20.09
2022-08-26T06:49:37.310Z,20.10
2022-08-26T06:50:37.332Z,20.15
2022-08-26T06:51:37.304Z,20.18
2022-08-26T06:52:37.286Z,20.23
2022-08-26T06:53:37.261Z,20.24
2022-08-26T06:54:38.895Z,20.25
2022-08-26T06:55:37.528Z,20.30
2022-08-26T06:56:37.287Z,20.31
2022-08-26T06:57:37.651Z,20.34
2022-08-26T06:58:37.225Z,20.35
2022-08-26T06:59:37.188Z,20.41
2022-08-26T07:00:37.190Z,20.41
2022-08-26T07:01:37.271Z,20.46
2022-08-26T07:02:37.576Z,20.49
2022-08-26T07:03:39.653Z,20.53
2022-08-26T07:04:37.142Z,20.56
2022-08-26T07:05:37.128Z,20.59
2022-08-26T07:06:37.119Z,20.54
2022-08-26T07:07:37.173Z,20.53
2022-08-26T07:08:37.187Z,20.56
2022-08-26T07:09:37.394Z,20.51
2022-08-26T07:10:37.117Z,20.51
2022-08-26T07:11:37.057Z,20.51
2022-08-26T07:12:37.061Z,20.53
2022-08-26T07:13:37.047Z,20.53
2022-08-26T07:14:37.081Z,20.59
2022-08-26T07:15:37.089Z,20.59
2022-08-26T07:16:37.285Z,20.66
2022-08-26T07:17:37.000Z,20.69
2022-08-26T07:18:36.996Z,20.68
2022-08-26T07:19:36.990Z,20.68
2022-08-26T07:20:36.995Z,20.62
2022-08-26T07:21:36.959Z,20.65
2022-08-26T07:22:36.948Z,20.71
2022-08-26T07:23:37.210Z,20.72
2022-08-26T07:24:36.958Z,20.80
2022-08-26T07:25:36.909Z,20.84
2022-08-26T07:26:36.955Z,20.89
2022-08-26T07:27:36.914Z,20.91
2022-08-26T07:28:36.879Z,20.95
2022-08-26T07:29:36.861Z,21.01
2022-08-26T07:30:37.208Z,21.04
2022-08-26T07:31:39.416Z,21.11
2022-08-26T07:32:36.945Z,21.16
2022-08-26T07:33:36.830Z,21.19
2022-08-26T07:34:36.845Z,21.20
2022-08-26T07:35:36.796Z,21.23
2022-08-26T07:36:36.796Z,21.26
2022-08-26T07:37:39.328Z,21.30
2022-08-26T07:38:36.837Z,21.27
2022-08-26T07:39:37.304Z,21.32
2022-08-26T07:40:36.746Z,21.34
2022-08-26T07:41:36.756Z,21.36
2022-08-26T07:42:36.728Z,21.42
2022-08-26T07:43:36.733Z,21.44
2022-08-26T07:44:37.045Z,21.45
2022-08-26T07:45:36.693Z,21.46
2022-08-26T07:46:36.713Z,21.45
2022-08-26T07:47:36.708Z,21.45
2022-08-26T07:48:36.661Z,21.45
2022-08-26T07:49:36.693Z,21.46
2022-08-26T07:50:50.344Z,21.45
2022-08-26T07:51:36.641Z,21.44
2022-08-26T07:52:36.648Z,21.38
2022-08-26T07:53:36.610Z,21.42
2022-08-26T07:54:36.902Z,21.42
2022-08-26T07:55:36.580Z,21.46
2022-08-26T07:56:36.646Z,21.51
2022-08-26T07:57:36.561Z,21.51
2022-08-26T07:58:36.577Z,21.56
2022-08-26T07:59:36.546Z,21.57
2022-08-26T08:00:36.548Z,21.57
2022-08-26T08:01:36.835Z,21.54
2022-08-26T08:02:36.556Z,21.53
2022-08-26T08:03:36.495Z,21.53
2022-08-26T08:04:36.761Z,21.51
2022-08-26T08:05:36.527Z,21.53
2022-08-26T08:06:36.493Z,21.57
2022-08-26T08:07:44.240Z,21.63
2022-08-26T08:08:36.501Z,21.66
2022-08-26T08:09:36.442Z,21.66
2022-08-26T08:10:36.454Z,21.66
2022-08-26T08:11:36.405Z,21.72
2022-08-26T08:12:36.408Z,21.71
2022-08-26T08:13:36.419Z,21.74
2022-08-26T08:14:36.689Z,21.76
2022-08-26T08:15:36.380Z,21.75
2022-08-26T08:16:39.124Z,21.74
2022-08-26T08:17:36.360Z,21.71
2022-08-26T08:18:36.337Z,21.72
2022-08-26T08:19:38.943Z,21.75
2022-08-26T08:20:36.365Z,21.76
2022-08-26T08:21:36.579Z,21.81
2022-08-26T08:22:36.313Z,21.83
2022-08-26T08:23:36.305Z,21.88
2022-08-26T08:24:36.284Z,21.88
2022-08-26T08:25:36.254Z,21.91
2022-08-26T08:26:36.279Z,21.95
2022-08-26T08:27:36.242Z,21.95
2022-08-26T08:28:36.520Z,21.99
2022-08-26T08:29:36.214Z,22.04
2022-08-26T08:30:36.288Z,22.09
2022-08-26T08:31:56.476Z,22.14
2022-08-26T08:32:36.267Z,22.16
2022-08-26T08:33:36.167Z,22.17
2022-08-26T08:34:36.209Z,22.17
2022-08-26T08:35:36.439Z,22.20
2022-08-26T08:36:36.464Z,22.19
2022-08-26T08:37:36.132Z,22.20
2022-08-26T08:38:36.452Z,22.22
2022-08-26T08:39:36.115Z,22.23
2022-08-26T08:40:36.203Z,22.27
2022-08-26T08:41:36.092Z,22.29
2022-08-26T08:42:36.365Z,22.25
2022-08-26T08:43:37.650Z,22.28
2022-08-26T08:44:36.113Z,22.29
2022-08-26T08:45:37.242Z,22.28
2022-08-26T08:46:36.062Z,22.25
2022-08-26T08:47:36.022Z,22.23
2022-08-26T08:48:36.016Z,22.23
2022-08-26T08:49:36.298Z,22.20
2022-08-26T08:50:36.059Z,22.25
2022-08-26T08:51:36.016Z,22.27
2022-08-26T08:52:35.977Z,22.29
2022-08-26T08:53:35.977Z,22.29
2022-08-26T08:54:35.965Z,22.29
2022-08-26T08:55:35.949Z,22.29
2022-08-26T08:56:36.246Z,22.28
2022-08-26T08:57:35.922Z,22.31
2022-08-26T08:58:35.936Z,22.29
2022-08-26T08:59:35.902Z,22.29
2022-08-26T09:00:39.672Z,22.32
2022-08-26T09:01:35.943Z,22.25
2022-08-26T09:02:36.002Z,22.23
2022-08-26T09:03:36.147Z,22.27
2022-08-26T09:04:35.853Z,22.23
2022-08-26T09:05:38.590Z,22.27
2022-08-26T09:06:35.847Z,22.29
2022-08-26T09:07:36.723Z,22.37
2022-08-26T09:08:35.877Z,22.43
2022-08-26T09:09:35.802Z,22.47
2022-08-26T09:10:36.146Z,22.49
2022-08-26T09:11:35.779Z,22.50
2022-08-26T09:12:35.804Z,22.50
2022-08-26T09:13:35.756Z,22.50
2022-08-26T09:14:35.791Z,22.49
2022-08-26T09:15:35.735Z,22.46
2022-08-26T09:16:35.785Z,22.43
2022-08-26T09:17:35.980Z,22.49
2022-08-26T09:18:35.742Z,22.49
2022-08-26T09:19:35.701Z,22.47
2022-08-26T09:20:35.709Z,22.47
2022-08-26T09:21:35.703Z,22.47
2022-08-26T09:22:35.674Z,22.41
2022-08-26T09:23:35.929Z,22.37
2022-08-26T09:24:41.622Z,22.32
2022-08-26T09:25:35.669Z,22.34
2022-08-26T09:26:35.644Z,22.31
2022-08-26T09:27:35.606Z,22.32
2022-08-26T09:28:35.597Z,22.34
2022-08-26T09:29:35.593Z,22.38
2022-08-26T09:30:35.629Z,22.39
2022-08-26T09:31:35.866Z,22.41
2022-08-26T09:32:35.619Z,22.39
2022-08-26T09:33:35.535Z,22.46
2022-08-26T09:34:35.547Z,22.50
2022-08-26T09:35:35.529Z,22.52
2022-08-26T09:36:39.526Z,22.57
2022-08-26T09:37:35.593Z,22.57
2022-08-26T09:38:35.798Z,22.59
2022-08-26T09:39:37.511Z,22.60
2022-08-26T09:40:35.563Z,22.65
2022-08-26T09:41:35.471Z,22.62
2022-08-26T09:42:35.446Z,22.62
2022-08-26T09:43:35.430Z,22.59
2022-08-26T09:44:35.489Z,22.60
2022-08-26T09:45:35.776Z,22.60
2022-08-26T09:46:35.584Z,22.62
2022-08-26T09:47:35.394Z,22.59
2022-08-26T09:48:36.031Z,22.59
2022-08-26T09:49:36.402Z,22.62
2022-08-26T09:50:35.391Z,22.68
2022-08-26T09:51:35.337Z,22.71
2022-08-26T09:52:35.646Z,22.74
2022-08-26T09:53:35.325Z,22.74
2022-08-26T09:54:35.350Z,22.69
2022-08-26T09:55:35.309Z,22.68
2022-08-26T09:56:35.339Z,22.71
2022-08-26T09:57:35.281Z,22.68
2022-08-26T09:58:35.280Z,22.69
2022-08-26T09:59:35.550Z,22.75
2022-08-26T10:00:35.248Z,22.82
2022-08-26T10:01:35.411Z,22.82
2022-08-26T10:02:35.271Z,22.84
2022-08-26T10:03:35.214Z,22.84
2022-08-26T10:04:35.338Z,22.83
2022-08-26T10:05:35.200Z,22.82
2022-08-26T10:06:35.500Z,22.83
2022-08-26T10:07:35.178Z,22.87
2022-08-26T10:08:35.231Z,22.89
2022-08-26T10:09:35.152Z,22.96
2022-08-26T10:10:35.147Z,23.04
2022-08-26T10:11:35.148Z,23.12
2022-08-26T10:12:35.121Z,23.24
2022-08-26T10:13:35.423Z,23.32
2022-08-26T10:14:35.221Z,23.42
2022-08-26T10:15:35.103Z,23.49
2022-08-26T10:16:35.127Z,23.57
2022-08-26T10:17:35.083Z,23.61
2022-08-26T10:18:35.078Z,23.61
2022-08-26T10:19:41.650Z,23.55
2022-08-26T10:20:35.082Z,23.53
2022-08-26T10:21:35.053Z,23.50
2022-08-26T10:22:35.020Z,23.49
2022-08-26T10:23:35.026Z,23.52
2022-08-26T10:24:34.998Z,23.53
2022-08-26T10:25:34.996Z,23.61
2022-08-26T10:26:35.024Z,23.62
2022-08-26T10:27:34.996Z,23.61
2022-08-26T10:28:34.957Z,23.61
2022-08-26T10:29:34.947Z,23.67
2022-08-26T10:30:34.958Z,23.68
2022-08-26T10:31:40.310Z,23.64
2022-08-26T10:32:34.947Z,23.67
2022-08-26T10:33:34.919Z,23.62
2022-08-26T10:34:34.899Z,23.67
2022-08-26T10:35:34.885Z,23.76
2022-08-26T10:36:47.024Z,23.83
2022-08-26T10:37:35.151Z,23.80
2022-08-26T10:38:34.877Z,23.85
2022-08-26T10:39:34.852Z,23.90
2022-08-26T10:40:34.898Z,23.97
2022-08-26T10:41:34.818Z,24.01
2022-08-26T10:42:34.809Z,24.01
2022-08-26T10:43:34.854Z,24.05
2022-08-26T10:44:34.835Z,24.01
2022-08-26T10:45:34.829Z,24.02
2022-08-26T10:46:34.764Z,24.00
2022-08-26T10:47:34.765Z,24.00
2022-08-26T10:48:35.471Z,24.00
2022-08-26T10:49:35.010Z,23.98
2022-08-26T10:50:34.791Z,23.95
2022-08-26T10:51:34.730Z,23.98
2022-08-26T10:52:34.703Z,23.97
2022-08-26T10:53:34.699Z,23.97
2022-08-26T10:54:34.679Z,23.94
2022-08-26T10:55:35.135Z,23.89
2022-08-26T10:56:34.996Z,23.82
2022-08-26T10:57:34.671Z,23.86
2022-08-26T10:58:34.631Z,23.94
2022-08-26T10:59:34.638Z,24.00
2022-08-26T11:00:34.625Z,24.01
2022-08-26T11:01:34.616Z,24.02
2022-08-26T11:02:34.638Z,24.04
2022-08-26T11:03:34.877Z,24.07
2022-08-26T11:04:35.089Z,24.14
2022-08-26T11:05:34.574Z,24.13
2022-08-26T11:06:37.005Z,24.10
2022-08-26T11:07:34.544Z,24.17
2022-08-26T11:08:34.556Z,24.26
2022-08-26T11:09:34.531Z,24.37
2022-08-26T11:10:34.800Z,24.47
2022-08-26T11:11:34.513Z,24.53
2022-08-26T11:12:34.495Z,24.41
2022-08-26T11:13:36.813Z,24.32
2022-08-26T11:14:42.061Z,24.35
2022-08-26T11:15:34.470Z,24.37
2022-08-26T11:16:34.454Z,24.37
2022-08-26T11:17:34.436Z,24.29
2022-08-26T11:18:34.428Z,24.26
2022-08-26T11:19:57.075Z,24.29
2022-08-26T11:20:34.448Z,24.34
2022-08-26T11:21:34.397Z,24.39
2022-08-26T11:22:34.379Z,24.47
2022-08-26T11:23:34.656Z,24.50
2022-08-26T11:24:34.360Z,24.50
2022-08-26T11:25:34.362Z,24.49
2022-08-26T11:26:37.740Z,24.44
2022-08-26T11:27:34.351Z,24.38
2022-08-26T11:28:34.323Z,24.24
2022-08-26T11:29:34.334Z,24.27
2022-08-26T11:30:34.578Z,24.34
2022-08-26T11:31:34.296Z,24.35
2022-08-26T11:32:34.311Z,24.42
2022-08-26T11:33:34.297Z,24.45
2022-08-26T11:34:34.248Z,24.52
2022-08-26T11:35:34.257Z,24.56
2022-08-26T11:36:34.252Z,24.61
2022-08-26T11:37:34.765Z,24.73
2022-08-26T11:38:34.268Z,24.80
2022-08-26T11:39:36.850Z,24.85
2022-08-26T11:40:34.283Z,24.90
2022-08-26T11:41:34.191Z,24.92
2022-08-26T11:42:34.171Z,24.95
2022-08-26T11:43:34.183Z,24.87
2022-08-26T11:44:34.494Z,25.00
2022-08-26T11:45:34.224Z,25.10
2022-08-26T11:46:34.131Z,25.17
2022-08-26T11:47:34.139Z,25.31
2022-08-26T11:48:34.124Z,25.35
2022-08-26T11:49:34.109Z,25.49
2022-08-26T11:50:34.163Z,25.62
2022-08-26T11:51:38.204Z,25.77
2022-08-26T11:52:34.070Z,25.82
2022-08-26T11:53:34.065Z,25.98
2022-08-26T11:54:35.603Z,26.05
2022-08-26T11:55:34.038Z,26.06
2022-08-26T11:56:34.055Z,26.29
2022-08-26T11:57:34.026Z,26.43
2022-08-26T11:58:33.999Z,26.44
2022-08-26T12:00:34.633Z,26.52
2022-08-26T12:01:33.983Z,26.55
2022-08-26T12:02:34.006Z,26.77
2022-08-26T12:03:34.106Z,26.72
2022-08-26T12:04:34.373Z,26.50
2022-08-26T12:05:33.940Z,26.28
2022-08-26T12:06:35.460Z,26.11
2022-08-26T12:07:33.917Z,26.09
2022-08-26T12:08:33.952Z,26.01
2022-08-26T12:09:33.906Z,25.93
2022-08-26T12:10:33.907Z,25.82
2022-08-26T12:11:33.885Z,25.82
2022-08-26T12:12:35.211Z,25.90
2022-08-26T12:13:33.865Z,25.98
2022-08-26T12:14:33.894Z,26.11
2022-08-26T12:15:33.834Z,26.12
2022-08-26T12:16:34.126Z,25.98
2022-08-26T12:17:33.833Z,25.89
2022-08-26T12:18:33.819Z,25.87
2022-08-26T12:19:33.832Z,25.87
2022-08-26T12:20:33.822Z,25.87
2022-08-26T12:21:34.670Z,25.87
2022-08-26T12:22:33.761Z,25.91
2022-08-26T12:23:33.768Z,25.91
2022-08-26T12:24:33.740Z,25.87
2022-08-26T12:25:36.122Z,25.87
2022-08-26T12:26:33.762Z,25.94
2022-08-26T12:27:33.715Z,26.06
2022-08-26T12:28:33.980Z,26.09
2022-08-26T12:29:33.696Z,26.04
2022-08-26T12:30:33.684Z,26.05
2022-08-26T12:31:33.737Z,26.17
2022-08-26T12:32:33.690Z,26.27
2022-08-26T12:33:33.650Z,26.25
2022-08-26T12:34:33.643Z,26.35
2022-08-26T12:35:34.032Z,26.31
2022-08-26T12:36:33.627Z,26.29
2022-08-26T12:37:33.630Z,26.28
2022-08-26T12:38:33.653Z,26.15
2022-08-26T12:39:33.598Z,26.08
2022-08-26T12:40:33.610Z,26.12
2022-08-26T12:41:33.576Z,26.20
2022-08-26T12:42:33.874Z,26.32
2022-08-26T12:43:33.593Z,26.46
2022-08-26T12:44:33.587Z,26.73
2022-08-26T12:45:33.640Z,26.89
2022-08-26T12:46:33.507Z,26.99
2022-08-26T12:47:41.927Z,27.67
2022-08-26T12:48:33.491Z,28.21
2022-08-26T12:49:33.962Z,28.78
2022-08-26T12:50:33.524Z,29.11
2022-08-26T12:51:33.514Z,28.95
2022-08-26T12:52:33.471Z,28.59
2022-08-26T12:53:33.442Z,28.46